Time;durP1;ratioP1;P1;durP2;ratioP2;P2;SDS_P1;SDS_P2;PMS_P1;PMS_P2;Temp;Humidity;BMP_temperature;BMP_pressure;BME280_temperature;BME280_humidity;BME280_pressure;Samples;Min_cycle;Max_cycle;Signal;HPM_P1;HPM_P2
2022/08/13 00:01:05;;;;;;;3.33;2.60;;;21.70;71.50;;;;;;5046856;28;20533;-74
2022/08/13 00:03:32;;;;;;;4.30;3.17;;;21.70;71.80;;;;;;5042341;28;20521;-75
2022/08/13 00:06:05;;;;;;;4.83;3.30;;;21.70;71.90;;;;;;5053989;28;20482;-74
2022/08/13 00:08:33;;;;;;;4.93;3.20;;;21.60;72.90;;;;;;5049647;28;22016;-75
2022/08/13 00:11:00;;;;;;;5.80;5.00;;;21.60;72.40;;;;;;5055654;28;20445;-76
2022/08/13 00:13:28;;;;;;;6.13;3.30;;;21.60;72.60;;;;;;5042054;28;20558;-74
2022/08/13 00:15:55;;;;;;;7.93;2.97;;;21.60;72.70;;;;;;5040558;28;20470;-75
2022/08/13 00:18:23;;;;;;;3.40;2.70;;;21.60;73.10;;;;;;5050699;28;20512;-74
2022/08/13 00:20:53;;;;;;;5.23;3.37;;;21.60;73.30;;;;;;5053538;28;20499;-77
2022/08/13 00:23:23;;;;;;;4.23;3.30;;;21.60;73.40;;;;;;5060739;28;20561;-74
2022/08/13 00:25:53;;;;;;;3.73;2.73;;;21.50;73.70;;;;;;5060519;28;20445;-76
2022/08/13 00:28:22;;;;;;;3.57;2.97;;;21.50;73.80;;;;;;5048009;28;20944;-76
2022/08/13 00:30:49;;;;;;;6.90;3.20;;;21.50;73.90;;;;;;5052240;28;20541;-76
2022/08/13 00:33:19;;;;;;;4.60;3.07;;;21.30;74.40;;;;;;5044066;28;20487;-76
2022/08/13 00:35:48;;;;;;;3.53;3.23;;;21.30;75.00;;;;;;5045052;28;20451;-76
2022/08/13 00:38:18;;;;;;;3.80;2.93;;;21.30;75.30;;;;;;5046358;28;20450;-75
2022/08/13 00:40:48;;;;;;;4.17;2.77;;;21.20;75.50;;;;;;5038926;28;20447;-76
2022/08/13 00:43:15;;;;;;;3.30;3.00;;;21.20;76.10;;;;;;5041486;28;20575;-75
2022/08/13 00:45:43;;;;;;;3.90;2.77;;;21.10;76.30;;;;;;5048901;28;20446;-75
2022/08/13 00:50:58;;;;;;;4.87;3.33;;;21.10;76.80;;;;;;5040838;28;20770;-74
2022/08/13 00:53:26;;;;;;;4.93;3.40;;;21.00;77.70;;;;;;5053875;28;20549;-74
2022/08/13 00:55:58;;;;;;;4.43;3.13;;;20.90;77.60;;;;;;5043603;28;20528;-75
2022/08/13 00:58:27;;;;;;;5.40;3.97;;;20.80;79.00;;;;;;5044835;28;20841;-76
2022/08/13 01:00:56;;;;;;;5.50;3.40;;;20.80;78.90;;;;;;5047139;28;20502;-75
2022/08/13 01:03:25;;;;;;;5.13;2.87;;;20.80;79.50;;;;;;5047711;28;20557;-75
2022/08/13 01:05:52;;;;;;;3.70;3.20;;;20.80;79.30;;;;;;5047949;28;20835;-76
2022/08/13 01:08:21;;;;;;;3.07;2.77;;;20.80;79.40;;;;;;5044647;28;20516;-74
2022/08/13 01:10:50;;;;;;;3.67;3.33;;;20.80;80.40;;;;;;5057436;28;20513;-75
2022/08/13 01:13:25;;;;;;;4.40;3.20;;;20.80;80.30;;;;;;5035462;28;20532;-75
2022/08/13 01:15:53;;;;;;;5.03;3.10;;;20.80;80.30;;;;;;5043758;28;20444;-75
2022/08/13 01:18:23;;;;;;;3.57;2.63;;;20.80;80.90;;;;;;5054913;28;21006;-74
2022/08/13 01:21:02;;;;;;;5.93;2.97;;;20.80;81.20;;;;;;5057778;28;20451;-75
2022/08/13 01:23:31;;;;;;;5.07;3.10;;;20.70;81.30;;;;;;5055923;28;20475;-76
2022/08/13 01:26:01;;;;;;;3.40;2.90;;;20.70;81.70;;;;;;5064180;28;20514;-75
2022/08/13 01:28:29;;;;;;;3.53;3.23;;;20.60;82.10;;;;;;5066691;28;20448;-75
2022/08/13 01:30:58;;;;;;;4.40;3.70;;;20.50;82.60;;;;;;5045388;28;20983;-75
2022/08/13 01:33:27;;;;;;;8.40;2.90;;;20.50;82.90;;;;;;5050559;28;20484;-74
2022/08/13 01:35:54;;;;;;;7.33;3.10;;;20.50;83.20;;;;;;5049188;28;20499;-76
2022/08/13 01:38:23;;;;;;;5.07;3.50;;;20.50;83.50;;;;;;5062869;28;20533;-74
2022/08/13 01:40:52;;;;;;;4.03;2.97;;;20.50;83.60;;;;;;5055043;28;20439;-75
2022/08/13 01:43:22;;;;;;;3.20;2.73;;;20.50;84.00;;;;;;5059853;28;20931;-75
2022/08/13 01:45:50;;;;;;;3.90;2.70;;;20.40;84.20;;;;;;5053014;28;20527;-75
2022/08/13 01:51:08;;;;;;;3.97;2.80;;;20.30;84.90;;;;;;5059437;28;20502;-76
2022/08/13 01:53:35;;;;;;;4.03;2.83;;;20.30;85.50;;;;;;5045874;28;20497;-76
2022/08/13 01:56:06;;;;;;;3.07;2.80;;;20.30;85.60;;;;;;5045947;28;20878;-75
2022/08/13 01:58:34;;;;;;;4.57;3.50;;;20.20;86.10;;;;;;5040739;28;20459;-74
2022/08/13 02:01:03;;;;;;;4.33;3.13;;;20.20;86.10;;;;;;5055406;28;20471;-75
2022/08/13 02:03:30;;;;;;;4.30;2.80;;;20.20;86.60;;;;;;5058948;28;20474;-76
2022/08/13 02:05:57;;;;;;;2.80;2.40;;;20.10;86.80;;;;;;5059620;28;20852;-74
2022/08/13 02:08:26;;;;;;;3.30;2.80;;;20.10;87.40;;;;;;5052842;28;20458;-74
2022/08/13 02:10:56;;;;;;;5.63;3.53;;;20.00;87.90;;;;;;5054106;28;20538;-73
2022/08/13 02:13:28;;;;;;;3.43;3.00;;;19.90;88.30;;;;;;5049077;28;20480;-75
2022/08/13 02:15:55;;;;;;;3.87;2.93;;;20.00;88.70;;;;;;5057383;28;20447;-72
2022/08/13 02:18:24;;;;;;;3.60;2.97;;;20.00;88.80;;;;;;5062362;28;20484;-74
2022/08/13 02:20:53;;;;;;;4.60;3.20;;;19.90;88.90;;;;;;5064801;28;20438;-75
2022/08/13 02:23:22;;;;;;;4.60;3.30;;;19.90;89.30;;;;;;5049381;28;21183;-75
2022/08/13 02:25:51;;;;;;;3.37;3.07;;;19.80;89.70;;;;;;5060227;28;20528;-74
2022/08/13 02:28:19;;;;;;;6.47;3.93;;;19.80;89.90;;;;;;5043817;28;20438;-74
2022/08/13 02:30:50;;;;;;;5.20;3.07;;;19.70;90.20;;;;;;5050336;28;20454;-74
2022/08/13 02:33:17;;;;;;;4.37;2.93;;;19.70;90.30;;;;;;5059852;28;20466;-74
2022/08/13 02:35:45;;;;;;;4.63;3.13;;;19.70;90.60;;;;;;5063569;28;20453;-75
2022/08/13 02:38:12;;;;;;;5.07;3.13;;;19.70;90.60;;;;;;5061298;28;20852;-74
2022/08/13 02:43:33;;;;;;;5.47;3.50;;;19.60;91.10;;;;;;5003980;28;20456;-73
2022/08/13 02:46:03;;;;;;;4.53;3.40;;;19.60;91.10;;;;;;5050755;28;20557;-74
2022/08/13 02:48:30;;;;;;;5.00;3.10;;;19.50;91.30;;;;;;5049429;28;20530;-74
2022/08/13 02:50:57;;;;;;;6.17;2.47;;;19.50;91.40;;;;;;5048038;28;20458;-74
2022/08/13 02:53:25;;;;;;;3.73;3.37;;;19.50;91.50;;;;;;5049260;28;20557;-75
2022/08/13 02:55:53;;;;;;;4.43;3.70;;;19.50;91.60;;;;;;5049427;28;20743;-74
2022/08/13 02:58:20;;;;;;;3.27;2.80;;;19.50;91.80;;;;;;5039918;28;20562;-75
2022/08/13 03:00:49;;;;;;;3.23;2.77;;;19.50;91.90;;;;;;5051049;28;20446;-74
2022/08/13 03:03:18;;;;;;;5.33;3.07;;;19.50;91.90;;;;;;5049346;28;20474;-75
2022/08/13 03:05:45;;;;;;;3.67;3.17;;;19.40;92.20;;;;;;5048088;28;20481;-75
2022/08/13 03:08:13;;;;;;;4.90;3.13;;;19.40;92.20;;;;;;5048405;28;20545;-74
2022/08/13 03:10:41;;;;;;;5.93;2.97;;;19.30;92.40;;;;;;5040978;28;20452;-76
2022/08/13 03:13:16;;;;;;;4.30;3.30;;;19.30;92.60;;;;;;5048171;28;20553;-74
2022/08/13 03:15:45;;;;;;;4.60;3.37;;;19.30;92.70;;;;;;5053759;28;20449;-75
2022/08/13 03:18:12;;;;;;;3.10;2.80;;;19.30;92.60;;;;;;5040223;28;20490;-76
2022/08/13 03:20:41;;;;;;;3.50;2.97;;;19.30;92.50;;;;;;5061255;28;20797;-75
2022/08/13 03:23:09;;;;;;;3.53;2.90;;;19.30;92.50;;;;;;5038981;28;20498;-76
2022/08/13 03:25:37;;;;;;;4.07;3.70;;;19.30;92.60;;;;;;5052128;28;20457;-76
2022/08/13 03:28:06;;;;;;;5.03;3.60;;;19.30;92.50;;;;;;5052817;28;20533;-76
2022/08/13 03:30:34;;;;;;;3.80;3.50;;;19.30;92.40;;;;;;5063619;28;20511;-74
2022/08/13 03:33:06;;;;;;;5.87;3.47;;;19.30;92.60;;;;;;5054849;28;20469;-73
2022/08/13 03:35:35;;;;;;;10.30;4.00;;;19.30;92.50;;;;;;5051089;28;20444;-73
2022/08/13 03:38:05;;;;;;;4.10;3.40;;;19.30;92.50;;;;;;5043829;28;20486;-74
2022/08/13 03:43:15;;;;;;;4.83;3.83;;;19.20;92.60;;;;;;5049477;28;20450;-76
2022/08/13 03:45:42;;;;;;;4.57;3.57;;;19.20;92.80;;;;;;5056054;28;20446;-75
2022/08/13 03:48:09;;;;;;;6.13;3.60;;;19.10;92.90;;;;;;5056474;28;20901;-75
2022/08/13 03:50:36;;;;;;;5.67;3.70;;;19.20;92.90;;;;;;5056484;28;20449;-77
2022/08/13 03:53:41;;;;;;;9.00;4.60;;;19.20;92.80;;;;;;5048341;28;20663;-76
2022/08/13 03:56:22;;;;;;;4.90;3.57;;;19.20;92.90;;;;;;5913222;22;20452;-77
2022/08/13 03:58:50;;;;;;;3.77;3.30;;;19.30;93.00;;;;;;5042189;28;20478;-77
2022/08/13 04:01:17;;;;;;;3.80;3.50;;;19.30;93.00;;;;;;5041448;28;20507;-78
2022/08/13 04:03:45;;;;;;;3.93;2.87;;;19.30;93.10;;;;;;5034070;28;20484;-76
2022/08/13 04:06:16;;;;;;;3.83;3.23;;;19.30;93.20;;;;;;5046226;28;20491;-77
2022/08/13 04:08:45;;;;;;;5.90;3.13;;;19.20;93.30;;;;;;5031310;28;20444;-76
2022/08/13 04:11:15;;;;;;;4.43;3.27;;;19.20;93.20;;;;;;5037971;28;20456;-78
2022/08/13 04:13:42;;;;;;;7.10;3.50;;;19.30;93.30;;;;;;5041784;28;20474;-78
2022/08/13 04:16:13;;;;;;;6.27;3.40;;;19.30;93.00;;;;;;5037128;28;20490;-78
2022/08/13 04:18:42;;;;;;;3.93;3.50;;;19.30;93.10;;;;;;5041355;28;20503;-77
2022/08/13 04:21:12;;;;;;;6.23;3.40;;;19.40;92.90;;;;;;5032156;28;20433;-79
2022/08/13 04:23:40;;;;;;;6.00;3.57;;;19.40;92.90;;;;;;5035742;28;20495;-78
2022/08/13 04:26:13;;;;;;;5.17;3.60;;;19.40;92.90;;;;;;5039067;28;20453;-78
2022/08/13 04:28:41;;;;;;;4.33;2.97;;;19.50;92.70;;;;;;5028499;28;20432;-77
2022/08/13 04:31:10;;;;;;;4.17;3.07;;;19.50;92.70;;;;;;5032280;28;20460;-78
2022/08/13 04:33:37;;;;;;;3.70;3.23;;;19.50;92.80;;;;;;5029661;28;20444;-77
2022/08/13 04:36:05;;;;;;;3.60;2.63;;;19.50;92.80;;;;;;5037885;28;20487;-78
2022/08/13 04:38:33;;;;;;;7.80;3.93;;;19.50;92.90;;;;;;5034353;28;20491;-78
2022/08/13 04:41:01;;;;;;;9.30;4.10;;;19.50;93.10;;;;;;5032580;28;20459;-78
2022/08/13 04:43:30;;;;;;;4.23;3.77;;;19.50;93.30;;;;;;5036373;28;20491;-78
2022/08/13 04:45:58;;;;;;;3.27;3.00;;;19.50;93.40;;;;;;5031074;28;20491;-79
2022/08/13 04:48:28;;;;;;;4.13;3.73;;;19.60;93.40;;;;;;5029347;28;20459;-79
2022/08/13 04:50:55;;;;;;;6.00;3.50;;;19.60;93.50;;;;;;5025047;28;20432;-78
2022/08/13 04:53:24;;;;;;;5.40;4.00;;;19.70;93.40;;;;;;5021833;28;20499;-80
2022/08/13 04:55:51;;;;;;;3.50;3.20;;;19.90;93.30;;;;;;5026368;28;20460;-79
2022/08/13 04:58:18;;;;;;;9.73;4.07;;;20.10;93.10;;;;;;5018729;28;20557;-80
2022/08/13 05:00:47;;;;;;;3.90;3.50;;;20.10;92.90;;;;;;5024147;28;20466;-81
2022/08/13 05:03:15;;;;;;;3.73;3.43;;;20.40;92.70;;;;;;5033263;28;20468;-79
2022/08/13 05:05:44;;;;;;;4.23;3.67;;;20.60;92.40;;;;;;5030527;28;20537;-78
2022/08/13 05:08:12;;;;;;;5.63;3.10;;;21.10;91.90;;;;;;5020189;28;20440;-79
2022/08/13 05:10:40;;;;;;;6.53;3.00;;;22.10;90.80;;;;;;5043477;28;20453;-80
2022/08/13 05:13:20;;;;;;;3.77;2.80;;;23.20;88.30;;;;;;5031055;28;20722;-79
2022/08/13 05:15:48;;;;;;;7.77;3.87;;;24.60;84.40;;;;;;5020923;28;20452;-77
2022/08/13 05:18:16;;;;;;;4.00;2.80;;;25.80;80.20;;;;;;5029522;28;20522;-79
2022/08/13 05:20:43;;;;;;;6.10;2.77;;;26.90;76.70;;;;;;5034274;28;20451;-78
2022/08/13 05:23:11;;;;;;;3.60;2.80;;;28.10;72.40;;;;;;5037023;28;20508;-79
2022/08/13 05:25:38;;;;;;;5.67;3.10;;;29.10;68.90;;;;;;5022205;28;20463;-81
2022/08/13 05:28:05;;;;;;;4.37;3.37;;;30.00;65.90;;;;;;5033429;28;20468;-82
2022/08/13 05:30:31;;;;;;;4.17;2.80;;;31.00;62.90;;;;;;5034667;28;20458;-80
2022/08/13 05:33:00;;;;;;;4.30;3.20;;;31.80;59.60;;;;;;5018738;28;20527;-81
2022/08/13 05:35:27;;;;;;;3.40;3.00;;;32.50;57.60;;;;;;5030953;28;21008;-82
2022/08/13 05:37:54;;;;;;;5.20;2.63;;;33.00;55.50;;;;;;5038598;28;20471;-79
2022/08/13 05:40:21;;;;;;;3.30;2.80;;;33.40;54.30;;;;;;5032094;28;20444;-83
2022/08/13 05:42:48;;;;;;;5.27;2.37;;;33.70;53.10;;;;;;5037823;28;20537;-82
2022/08/13 05:45:15;;;;;;;4.40;3.07;;;33.90;52.30;;;;;;5037905;28;20473;-81
2022/08/13 05:47:43;;;;;;;5.77;3.13;;;34.10;51.50;;;;;;5029260;28;20471;-80
2022/08/13 05:50:15;;;;;;;4.03;3.20;;;34.10;51.90;;;;;;5025259;28;20451;-81
2022/08/13 05:52:42;;;;;;;4.13;2.50;;;33.80;51.50;;;;;;5031048;28;20483;-81
2022/08/13 05:55:11;;;;;;;4.10;2.90;;;33.50;51.80;;;;;;5033944;28;20463;-78
2022/08/13 05:57:39;;;;;;;4.87;3.40;;;33.40;51.70;;;;;;5039218;28;20438;-80
2022/08/13 06:05:44;;;;;;;3.57;3.27;;;33.90;51.00;;;;;;5033993;28;20578;-81
2022/08/13 06:08:11;;;;;;;4.57;3.87;;;34.00;49.90;;;;;;5022861;28;20562;-80
2022/08/13 06:10:41;;;;;;;8.07;6.70;;;34.00;50.60;;;;;;5035705;28;20462;-80
2022/08/13 06:13:08;;;;;;;10.27;6.53;;;34.30;50.50;;;;;;5032397;28;20451;-80
2022/08/13 06:15:35;;;;;;;6.20;5.30;;;34.20;50.20;;;;;;5030407;28;20559;-80
2022/08/13 06:18:03;;;;;;;4.40;3.30;;;34.50;49.90;;;;;;5027524;28;20513;-79
2022/08/13 06:20:29;;;;;;;6.30;3.70;;;34.70;49.40;;;;;;5040252;28;20451;-80
2022/08/13 06:22:59;;;;;;;3.70;3.23;;;35.10;49.10;;;;;;5043736;28;20526;-80
2022/08/13 06:25:27;;;;;;;4.20;3.40;;;35.30;48.60;;;;;;5034966;28;20558;-80
2022/08/13 06:27:54;;;;;;;56.73;50.20;;;35.60;47.60;;;;;;5033394;28;20483;-80
2022/08/13 06:30:21;;;;;;;8.83;7.50;;;35.30;47.40;;;;;;5034552;28;20651;-79
2022/08/13 06:32:49;;;;;;;6.00;4.80;;;35.50;47.20;;;;;;5042744;28;20449;-79
2022/08/13 06:35:16;;;;;;;10.63;5.30;;;35.60;47.00;;;;;;5035298;28;20459;-81
2022/08/13 06:37:43;;;;;;;4.70;3.37;;;35.70;46.80;;;;;;5039041;28;20546;-81
2022/08/13 06:40:16;;;;;;;4.73;3.30;;;36.10;46.10;;;;;;5024490;28;20440;-82
2022/08/13 06:42:44;;;;;;;5.90;3.43;;;36.10;45.90;;;;;;5025615;28;20485;-79
2022/08/13 06:45:11;;;;;;;3.47;2.57;;;36.60;45.20;;;;;;5040963;28;20470;-81
2022/08/13 06:47:39;;;;;;;5.57;2.90;;;36.80;44.90;;;;;;5040670;28;20463;-77
2022/08/13 06:50:09;;;;;;;6.30;3.10;;;37.00;44.60;;;;;;5041031;28;20452;-79
2022/08/13 06:52:37;;;;;;;6.67;4.17;;;37.30;44.00;;;;;;5029081;28;20454;-81
2022/08/13 06:55:07;;;;;;;3.83;3.53;;;37.00;44.40;;;;;;5029151;28;20464;-81
2022/08/13 06:57:37;;;;;;;3.33;2.80;;;37.20;43.60;;;;;;5019894;28;20468;-79
2022/08/13 07:00:09;;;;;;;6.30;5.07;;;37.60;43.50;;;;;;5029511;28;20464;-82
2022/08/13 07:02:37;;;;;;;4.80;4.30;;;37.40;43.00;;;;;;5027608;28;20441;-78
2022/08/13 07:05:05;;;;;;;5.73;3.10;;;37.20;43.00;;;;;;5025278;28;20464;-81
2022/08/13 07:07:33;;;;;;;5.37;4.13;;;37.30;43.20;;;;;;5026486;28;20448;-82
2022/08/13 07:10:01;;;;;;;5.27;3.20;;;37.50;43.20;;;;;;5026994;28;20520;-79
2022/08/13 07:12:27;;;;;;;44.03;39.27;;;38.00;42.80;;;;;;5032039;28;20523;-79
2022/08/13 07:14:57;;;;;;;4.00;3.60;;;38.50;42.30;;;;;;5031098;28;20461;-82
2022/08/13 07:17:28;;;;;;;9.53;8.77;;;38.30;41.90;;;;;;5025233;28;20448;-82
2022/08/13 07:19:55;;;;;;;8.07;5.33;;;38.20;41.90;;;;;;5025772;28;20436;-81
2022/08/13 07:22:22;;;;;;;15.57;14.00;;;38.10;42.00;;;;;;5025521;28;20448;-81
2022/08/13 07:24:49;;;;;;;6.67;5.80;;;38.00;42.10;;;;;;5022171;28;20481;-80
2022/08/13 07:27:17;;;;;;;5.50;4.97;;;37.90;42.40;;;;;;5028047;28;20443;-79
2022/08/13 07:29:49;;;;;;;7.10;3.33;;;38.10;42.10;;;;;;5025366;28;20547;-79
2022/08/13 07:32:17;;;;;;;11.83;2.87;;;37.70;42.00;;;;;;5038462;28;20440;-79
2022/08/13 07:34:45;;;;;;;3.87;2.90;;;37.70;42.80;;;;;;5030739;28;20474;-81
2022/08/13 07:37:20;;;;;;;7.50;3.77;;;38.10;41.80;;;;;;5027991;28;20431;-82
2022/08/13 07:39:47;;;;;;;13.00;10.40;;;38.00;41.90;;;;;;5030398;28;20451;-81
2022/08/13 07:42:16;;;;;;;6.20;3.90;;;37.70;41.90;;;;;;5031767;28;20522;-80
2022/08/13 07:44:43;;;;;;;16.93;14.37;;;38.00;41.70;;;;;;5028168;28;20463;-81
2022/08/13 07:47:14;;;;;;;3.53;2.80;;;37.80;41.80;;;;;;5026633;28;20474;-82
2022/08/13 07:49:44;;;;;;;10.77;8.07;;;38.20;41.00;;;;;;5019360;28;20479;-82
2022/08/13 07:52:12;;;;;;;13.73;12.27;;;37.80;41.40;;;;;;5032389;28;20536;-82
2022/08/13 07:54:40;;;;;;;24.57;21.13;;;37.80;41.90;;;;;;5031511;28;20506;-81
2022/08/13 07:57:07;;;;;;;49.37;44.17;;;38.20;41.50;;;;;;5038364;28;20463;-81
2022/08/13 07:59:34;;;;;;;4.10;3.40;;;38.20;41.80;;;;;;5030135;28;20448;-82
2022/08/13 08:02:01;;;;;;;6.80;3.97;;;37.90;40.80;;;;;;5026161;28;20933;-82
2022/08/13 08:04:30;;;;;;;4.93;3.90;;;38.50;41.10;;;;;;5034429;28;20519;-82
2022/08/13 08:07:00;;;;;;;4.13;3.03;;;38.60;40.80;;;;;;5030775;28;20462;-82
2022/08/13 08:09:29;;;;;;;5.10;4.60;;;38.70;40.20;;;;;;5034903;28;20507;-79
2022/08/13 08:14:42;;;;;;;6.10;5.07;;;39.40;39.80;;;;;;5021308;28;20506;-81
2022/08/13 08:17:11;;;;;;;4.43;2.70;;;39.50;38.90;;;;;;5021894;28;20458;-80
2022/08/13 08:19:39;;;;;;;6.40;5.80;;;40.00;38.70;;;;;;5024352;28;20507;-80
2022/08/13 08:22:11;;;;;;;30.93;27.97;;;40.00;38.20;;;;;;5028512;28;20475;-80
2022/08/13 08:24:38;;;;;;;4.37;3.17;;;40.50;38.00;;;;;;5032310;28;20477;-82
2022/08/13 08:27:09;;;;;;;7.47;2.50;;;40.40;37.50;;;;;;5025567;28;20801;-81
2022/08/13 08:29:39;;;;;;;3.33;3.03;;;40.60;37.00;;;;;;5020113;28;20488;-81
2022/08/13 08:32:08;;;;;;;12.27;3.37;;;40.40;37.30;;;;;;5019833;28;20475;-80
2022/08/13 08:34:37;;;;;;;5.37;4.07;;;40.90;36.40;;;;;;5024033;28;20514;-82
2022/08/13 08:37:04;;;;;;;4.80;2.27;;;41.30;36.30;;;;;;5029661;28;20471;-83
2022/08/13 08:42:40;;;;;;;9.13;5.30;;;43.10;33.90;;;;;;5026651;28;20434;-80
2022/08/13 08:45:13;;;;;;;5.33;3.60;;;42.60;33.60;;;;;;5034150;28;20471;-81
2022/08/13 08:47:42;;;;;;;7.00;4.00;;;42.50;34.20;;;;;;5025479;28;20452;-79
2022/08/13 08:50:10;;;;;;;2.70;2.50;;;42.40;34.40;;;;;;5025390;28;20555;-81
2022/08/13 08:55:26;;;;;;;5.73;2.70;;;42.90;33.30;;;;;;5030891;28;20454;-82
2022/08/13 08:57:53;;;;;;;4.00;2.33;;;43.30;32.90;;;;;;5031993;28;20479;-79
2022/08/13 09:00:23;;;;;;;2.87;2.60;;;43.50;32.40;;;;;;5045988;28;20495;-77
2022/08/13 09:02:50;;;;;;;6.73;3.43;;;43.40;31.30;;;;;;5042271;28;20464;-79
2022/08/13 09:05:20;;;;;;;3.60;3.30;;;43.70;32.00;;;;;;5040699;28;20475;-78
2022/08/13 09:07:47;;;;;;;7.50;6.20;;;43.70;32.10;;;;;;5038861;28;20443;-82
2022/08/13 09:10:16;;;;;;;9.63;8.73;;;43.80;31.10;;;;;;5016065;28;20857;-81
2022/08/13 09:12:46;;;;;;;6.60;6.00;;;42.90;31.80;;;;;;5018045;28;20499;-82
2022/08/13 09:15:14;;;;;;;4.00;3.20;;;43.40;31.60;;;;;;5017025;28;20467;-81
2022/08/13 09:17:42;;;;;;;9.30;4.17;;;43.70;31.90;;;;;;5019520;28;20541;-81
2022/08/13 09:20:12;;;;;;;4.23;2.77;;;43.80;31.20;;;;;;5026998;28;20439;-80
2022/08/13 09:22:40;;;;;;;2.80;2.27;;;44.00;31.00;;;;;;5026454;28;20456;-78
2022/08/13 09:25:08;;;;;;;4.73;4.17;;;43.80;31.10;;;;;;5036645;28;20480;-78
2022/08/13 09:27:36;;;;;;;4.67;3.70;;;43.30;31.40;;;;;;5037232;28;20495;-80
2022/08/13 09:30:05;;;;;;;3.17;2.80;;;43.10;32.00;;;;;;5040509;28;20506;-80
2022/08/13 09:32:33;;;;;;;4.57;2.77;;;43.00;32.10;;;;;;5036520;28;20482;-79
2022/08/13 09:35:01;;;;;;;5.73;3.37;;;42.20;32.70;;;;;;5032899;28;20467;-80
2022/08/13 09:37:29;;;;;;;4.00;2.90;;;42.40;33.30;;;;;;5017449;28;20540;-79
2022/08/13 09:40:06;;;;;;;5.50;3.60;;;42.50;33.10;;;;;;5031046;28;20471;-79
2022/08/13 09:42:37;;;;;;;2.93;2.73;;;42.50;32.90;;;;;;5031354;28;20440;-80
2022/08/13 09:45:08;;;;;;;5.70;3.90;;;42.20;33.30;;;;;;5030320;28;20468;-79
2022/08/13 09:47:35;;;;;;;3.40;2.83;;;41.90;33.20;;;;;;5032209;28;20471;-81
2022/08/13 09:50:02;;;;;;;3.53;2.60;;;41.90;33.40;;;;;;5043477;28;20487;-79
2022/08/13 09:52:30;;;;;;;9.03;2.20;;;41.60;33.50;;;;;;5035833;28;20511;-80
2022/08/13 09:54:57;;;;;;;3.57;3.27;;;41.70;33.60;;;;;;5030062;28;20526;-80
2022/08/13 09:57:25;;;;;;;8.13;3.47;;;41.50;33.70;;;;;;5022653;28;20484;-78
2022/08/13 09:59:53;;;;;;;5.40;2.97;;;40.70;34.00;;;;;;5022319;28;20447;-79
2022/08/13 10:02:22;;;;;;;3.20;2.60;;;39.60;35.30;;;;;;5024328;28;20444;-79
2022/08/13 10:04:52;;;;;;;2.67;2.47;;;39.30;35.80;;;;;;5031088;28;20488;-80
2022/08/13 10:07:19;;;;;;;8.20;3.23;;;39.60;36.00;;;;;;5033969;28;20456;-80
2022/08/13 10:09:46;;;;;;;3.13;2.40;;;38.90;36.50;;;;;;5035641;28;20483;-80
2022/08/13 10:12:13;;;;;;;3.03;2.70;;;37.80;37.60;;;;;;5044636;28;20431;-80
2022/08/13 10:14:40;;;;;;;3.63;2.33;;;36.90;39.10;;;;;;5035105;28;20480;-81
2022/08/13 10:17:08;;;;;;;3.07;2.20;;;36.10;39.60;;;;;;5021500;28;20842;-81
2022/08/13 10:19:36;;;;;;;5.13;2.63;;;35.20;40.60;;;;;;5029654;28;20448;-79
2022/08/13 10:22:03;;;;;;;3.20;2.63;;;34.60;41.80;;;;;;5034330;28;20452;-81
2022/08/13 10:24:30;;;;;;;4.10;2.70;;;34.10;42.80;;;;;;5043298;28;20439;-80
2022/08/13 10:26:57;;;;;;;3.70;2.57;;;33.80;43.20;;;;;;5027725;28;20440;-80
2022/08/13 10:29:24;;;;;;;2.67;2.47;;;33.40;43.70;;;;;;5033848;28;20851;-80
2022/08/13 10:31:51;;;;;;;2.70;2.40;;;33.30;44.60;;;;;;5035899;28;20661;-81
2022/08/13 10:34:22;;;;;;;3.90;2.80;;;33.70;44.50;;;;;;5033601;28;20447;-83
2022/08/13 10:36:50;;;;;;;4.47;3.27;;;33.90;44.40;;;;;;5037604;28;20514;-82
2022/08/13 10:39:17;;;;;;;3.23;2.80;;;33.80;44.30;;;;;;5031765;28;20948;-82
2022/08/13 10:41:44;;;;;;;3.80;2.70;;;34.10;43.50;;;;;;5030898;28;20477;-81
2022/08/13 10:44:13;;;;;;;3.50;2.70;;;34.00;43.50;;;;;;5035412;28;20471;-83
2022/08/13 10:46:41;;;;;;;6.43;2.57;;;33.70;44.20;;;;;;5042902;28;20491;-79
2022/08/13 10:49:10;;;;;;;4.00;3.13;;;33.80;44.80;;;;;;5038246;28;20558;-81
2022/08/13 10:51:37;;;;;;;4.73;3.10;;;34.00;44.50;;;;;;5045857;28;20439;-81
2022/08/13 10:54:07;;;;;;;6.23;3.23;;;34.00;44.10;;;;;;5037671;28;20508;-80
2022/08/13 10:56:34;;;;;;;3.27;2.97;;;34.00;44.60;;;;;;5018422;28;20864;-84
2022/08/13 10:59:04;;;;;;;6.00;3.60;;;34.30;45.70;;;;;;5029094;28;20527;-82
2022/08/13 11:01:32;;;;;;;2.83;2.63;;;34.00;44.60;;;;;;5035892;28;20528;-82
2022/08/13 11:04:01;;;;;;;5.50;2.80;;;34.00;44.70;;;;;;5028439;28;20969;-81
2022/08/13 11:06:29;;;;;;;5.80;3.60;;;34.20;44.80;;;;;;5017423;28;20467;-81
2022/08/13 11:08:59;;;;;;;3.67;2.47;;;34.10;44.60;;;;;;5031678;28;20522;-83
2022/08/13 11:11:28;;;;;;;3.33;2.87;;;34.10;45.00;;;;;;5027405;28;20444;-83
2022/08/13 11:13:55;;;;;;;3.33;2.60;;;34.00;44.70;;;;;;5020094;28;20539;-82
2022/08/13 11:19:14;;;;;;;6.67;3.20;;;33.40;45.90;;;;;;5025131;28;20443;-82
2022/08/13 11:21:42;;;;;;;4.77;4.00;;;33.40;45.80;;;;;;5020795;28;20555;-79
2022/08/13 11:24:09;;;;;;;4.07;3.60;;;33.40;46.30;;;;;;5037953;28;20525;-81
2022/08/13 11:26:37;;;;;;;6.87;4.43;;;33.40;46.30;;;;;;5040921;28;20490;-82
2022/08/13 11:29:04;;;;;;;3.50;3.20;;;33.20;46.60;;;;;;5028924;28;20920;-84
2022/08/13 11:31:31;;;;;;;6.23;3.43;;;33.50;46.50;;;;;;5038327;28;20761;-81
2022/08/13 11:33:58;;;;;;;4.00;3.30;;;33.90;46.00;;;;;;5032515;28;20502;-81
2022/08/13 11:36:25;;;;;;;4.30;3.93;;;33.90;45.40;;;;;;5037496;28;20467;-79
2022/08/13 11:38:52;;;;;;;3.23;2.97;;;34.00;45.20;;;;;;5046991;28;20468;-78
2022/08/13 11:41:19;;;;;;;3.93;3.20;;;34.00;44.80;;;;;;5033632;28;20475;-80
2022/08/13 11:43:48;;;;;;;3.73;2.77;;;34.00;44.90;;;;;;5037497;28;20502;-81
2022/08/13 11:46:15;;;;;;;4.30;3.47;;;33.90;44.70;;;;;;5039083;28;20460;-81
2022/08/13 11:48:42;;;;;;;4.03;3.73;;;34.10;44.60;;;;;;5038344;28;20880;-81
2022/08/13 11:51:09;;;;;;;3.63;3.33;;;34.20;45.90;;;;;;5028212;28;20480;-82
2022/08/13 11:53:36;;;;;;;2.97;2.77;;;34.40;46.20;;;;;;5026307;28;20468;-81
2022/08/13 11:56:04;;;;;;;4.40;2.83;;;34.80;46.20;;;;;;5027191;28;20492;-80
2022/08/13 11:58:32;;;;;;;4.20;3.00;;;34.90;45.20;;;;;;5036207;28;20451;-81
2022/08/13 12:01:05;;;;;;;4.00;3.70;;;34.70;45.60;;;;;;5020191;28;20503;-81
2022/08/13 12:03:32;;;;;;;4.80;3.27;;;34.70;45.90;;;;;;5035051;28;20895;-82
2022/08/13 12:05:58;;;;;;;3.60;3.30;;;34.50;45.90;;;;;;5039092;28;20552;-81
2022/08/13 12:08:25;;;;;;;3.60;3.30;;;34.30;45.90;;;;;;5035856;28;20547;-82
2022/08/13 12:10:52;;;;;;;4.03;3.33;;;34.10;46.10;;;;;;5030351;28;20538;-82
2022/08/13 12:13:19;;;;;;;6.90;3.83;;;33.90;46.50;;;;;;5018466;28;20455;-82
2022/08/13 12:15:46;;;;;;;4.40;3.50;;;33.70;47.00;;;;;;5025943;28;20531;-81
2022/08/13 12:18:15;;;;;;;4.50;3.20;;;33.70;47.20;;;;;;5026538;28;20511;-79
2022/08/13 12:20:42;;;;;;;3.20;2.90;;;33.60;47.20;;;;;;5032726;28;20462;-83
2022/08/13 12:23:09;;;;;;;3.40;3.10;;;33.40;46.80;;;;;;5029693;28;20584;-81
2022/08/13 12:25:36;;;;;;;6.40;2.90;;;33.10;47.30;;;;;;5018483;28;20531;-83
2022/08/13 12:28:11;;;;;;;3.33;3.13;;;33.10;47.50;;;;;;5024653;28;20511;-82
2022/08/13 12:30:39;;;;;;;5.50;3.30;;;33.30;47.20;;;;;;5027633;28;20551;-83
2022/08/13 12:33:06;;;;;;;3.53;3.23;;;33.30;47.50;;;;;;5033480;28;20507;-80
2022/08/13 12:35:35;;;;;;;3.57;3.10;;;33.30;47.30;;;;;;5036422;28;20464;-82
2022/08/13 12:38:07;;;;;;;3.30;3.00;;;33.30;47.50;;;;;;5025457;28;20452;-84
2022/08/13 12:40:34;;;;;;;10.03;5.17;;;33.30;47.10;;;;;;5032347;28;20447;-82
2022/08/13 12:43:01;;;;;;;3.97;3.67;;;33.40;47.10;;;;;;5024483;28;20853;-83
2022/08/13 12:45:28;;;;;;;3.83;3.30;;;33.30;47.10;;;;;;5019715;28;20546;-82
2022/08/13 12:47:55;;;;;;;3.40;3.10;;;33.10;47.60;;;;;;5029626;28;20522;-81
2022/08/13 12:50:22;;;;;;;5.33;3.60;;;33.10;47.90;;;;;;5027426;28;20519;-81
2022/08/13 12:52:51;;;;;;;5.97;3.50;;;33.20;47.50;;;;;;5016457;28;20448;-81
2022/08/13 12:55:17;;;;;;;4.20;3.43;;;33.00;47.40;;;;;;5026369;28;20547;-81
2022/08/13 12:57:45;;;;;;;3.90;3.60;;;33.20;47.80;;;;;;5023266;28;20452;-78
2022/08/13 13:00:12;;;;;;;4.23;3.83;;;33.40;47.20;;;;;;5025785;28;20444;-82
2022/08/13 13:02:40;;;;;;;6.43;3.40;;;33.50;46.90;;;;;;5026133;28;20440;-82
2022/08/13 13:05:08;;;;;;;8.00;3.87;;;33.50;46.90;;;;;;5029851;28;20472;-82
2022/08/13 13:07:34;;;;;;;5.47;3.43;;;33.60;47.20;;;;;;5032104;28;20450;-82
2022/08/13 13:10:04;;;;;;;3.80;3.50;;;33.60;47.20;;;;;;5025754;28;20556;-83
2022/08/13 13:12:31;;;;;;;4.73;4.33;;;33.90;47.50;;;;;;5028758;28;20477;-83
2022/08/13 13:14:58;;;;;;;4.63;3.83;;;34.00;46.70;;;;;;5024180;28;20533;-82
2022/08/13 13:17:26;;;;;;;4.83;3.87;;;33.90;46.50;;;;;;5038507;28;20494;-81
2022/08/13 13:19:53;;;;;;;5.07;3.73;;;33.80;46.80;;;;;;5028672;28;20452;-81